| time (UTC) | temp F | wind direction | speed MPH | gust MPH | rain 1hr in | rain 24hr in | rain mn in | humidity % | barometer mb |
| 20260509080057 | 40 | 267 | 25.0 | 36.0 | 0.00 | 0.00 | 0.00 | 52 | 868.5 |
| 20260509070054 | 39 | 282 | 13.0 | 18.0 | 0.00 | 0.00 | 0.00 | 59 | 868.9 |
| 20260509060058 | 39 | 269 | 22.0 | 33.0 | 0.00 | 0.00 | 0.00 | 59 | 868.8 |
| 20260509050057 | 40 | 260 | 21.0 | 38.0 | 0.00 | 0.00 | 0.00 | 60 | 868.0 |
| 20260509040127 | 42 | 255 | 23.0 | 33.0 | 0.00 | 0.00 | 0.00 | 53 | 868.4 |
| 20260509030050 | 44 | 256 | 23.0 | 37.0 | 0.00 | 0.00 | 0.00 | 45 | 868.1 |
| 20260509020039 | 47 | 244 | 17.0 | 29.0 | 0.00 | 0.00 | 0.00 | 51 | 867.8 |
| 20260509010105 | 49 | 251 | 15.0 | 21.0 | 0.00 | 0.00 | 0.00 | 42 | 867.7 |
| 20260509000304 | 50 | 249 | 17.0 | 25.0 | 0.00 | 0.00 | 0.00 | 40 | 867.9 |
| 20260508230038 | 51 | 229 | 5.0 | 18.0 | 0.00 | 0.00 | 0.00 | 38 | 868.0 |
| 20260508220114 | 53 | 306 | 2.0 | 7.0 | 0.00 | 0.00 | 0.00 | 35 | 867.9 |
| 20260508210048 | 52 | 202 | 7.0 | 11.0 | 0.00 | 0.00 | 0.00 | 35 | 868.2 |
| 20260508200028 | 50 | 200 | 9.0 | 11.0 | 0.00 | 0.00 | 0.00 | 37 | 868.0 |
| 20260508190051 | 49 | 221 | 6.0 | 14.0 | 0.00 | 0.00 | 0.00 | 40 | 867.9 |
| 20260508180052 | 51 | 178 | 3.0 | 8.0 | 0.00 | 0.00 | 0.00 | 48 | 868.2 |
| 20260508170052 | 48 | 152 | 2.0 | 8.0 | 0.00 | 0.00 | 0.00 | 51 | 867.6 |
| 20260508160132 | 46 | 58 | 1.0 | 5.0 | 0.00 | 0.00 | 0.00 | 52 | 867.2 |
| 20260508150056 | 47 | 76 | 2.0 | 5.0 | 0.00 | 0.00 | 0.00 | 46 | 867.0 |
| 20260508140038 | 45 | 19 | 2.0 | 3.0 | 0.00 | 0.00 | 0.00 | 42 | 866.9 |
| 20260508130053 | 45 | 250 | 1.0 | 3.0 | 0.00 | 0.00 | 0.00 | 28 | 866.6 |
| 20260508120048 | 45 | 269 | 5.0 | 8.0 | 0.00 | 0.00 | 0.00 | 25 | 866.7 |
| 20260508110045 | 44 | 255 | 7.0 | 10.0 | 0.00 | 0.00 | 0.00 | 29 | 866.7 |
| 20260508100045 | 46 | 229 | 2.0 | 7.0 | 0.00 | 0.00 | 0.00 | 30 | 866.8 |
| 20260508090045 | 46 | 221 | 4.0 | 12.0 | 0.00 | 0.00 | 0.00 | 29 | 866.9 |